sensor_id;sensor_type;location;lat;lon;timestamp;pressure;altitude;pressure_sealevel;temperature;humidity
8140;BME280;4111;50.972;7.072;2023-07-09T00:00:48;101267.53;;;23.30;82.34
8140;BME280;4111;50.972;7.072;2023-07-09T00:03:15;101259.34;;;23.25;82.24
8140;BME280;4111;50.972;7.072;2023-07-09T00:05:42;101262.75;;;23.22;82.79
8140;BME280;4111;50.972;7.072;2023-07-09T00:08:30;101260.16;;;23.26;83.01
8140;BME280;4111;50.972;7.072;2023-07-09T00:10:58;101256.75;;;23.29;83.10
8140;BME280;4111;50.972;7.072;2023-07-09T00:13:26;101259.53;;;23.29;82.70
8140;BME280;4111;50.972;7.072;2023-07-09T00:15:58;101260.84;;;23.31;82.77
8140;BME280;4111;50.972;7.072;2023-07-09T00:18:26;101263.75;;;23.26;82.28
8140;BME280;4111;50.972;7.072;2023-07-09T00:20:52;101262.59;;;23.19;82.53
8140;BME280;4111;50.972;7.072;2023-07-09T00:23:19;101257.16;;;23.05;82.57
8140;BME280;4111;50.972;7.072;2023-07-09T00:25:46;101262.59;;;23.19;82.65
8140;BME280;4111;50.972;7.072;2023-07-09T00:28:14;101264.50;;;23.09;82.77
8140;BME280;4111;50.972;7.072;2023-07-09T00:30:41;101254.69;;;23.03;82.72
8140;BME280;4111;50.972;7.072;2023-07-09T00:33:11;101260.81;;;23.00;83.17
8140;BME280;4111;50.972;7.072;2023-07-09T00:35:44;101262.25;;;22.89;83.27
8140;BME280;4111;50.972;7.072;2023-07-09T00:38:18;101249.56;;;22.65;83.93
8140;BME280;4111;50.972;7.072;2023-07-09T00:41:05;101252.72;;;22.50;84.39
8140;BME280;4111;50.972;7.072;2023-07-09T00:43:35;101255.56;;;22.36;85.11
8140;BME280;4111;50.972;7.072;2023-07-09T00:49:01;101253.84;;;22.26;86.17
8140;BME280;4111;50.972;7.072;2023-07-09T00:51:33;101255.19;;;22.83;85.78
8140;BME280;4111;50.972;7.072;2023-07-09T00:54:08;101258.38;;;23.30;83.95
8140;BME280;4111;50.972;7.072;2023-07-09T00:56:43;101253.06;;;23.51;82.26
8140;BME280;4111;50.972;7.072;2023-07-09T00:59:15;101254.03;;;23.46;81.47
8140;BME280;4111;50.972;7.072;2023-07-09T01:01:43;101248.50;;;23.55;80.93
8140;BME280;4111;50.972;7.072;2023-07-09T01:04:10;101251.97;;;23.61;80.40
8140;BME280;4111;50.972;7.072;2023-07-09T01:06:44;101247.09;;;23.75;79.99
8140;BME280;4111;50.972;7.072;2023-07-09T01:09:11;101250.34;;;23.77;79.56
8140;BME280;4111;50.972;7.072;2023-07-09T01:11:37;101252.84;;;23.79;78.92
8140;BME280;4111;50.972;7.072;2023-07-09T01:14:08;101249.25;;;23.78;78.71
8140;BME280;4111;50.972;7.072;2023-07-09T01:16:41;101251.91;;;23.43;78.93
8140;BME280;4111;50.972;7.072;2023-07-09T01:19:08;101244.31;;;23.17;79.49
8140;BME280;4111;50.972;7.072;2023-07-09T01:21:35;101252.03;;;22.98;80.28
8140;BME280;4111;50.972;7.072;2023-07-09T01:24:12;101251.41;;;22.78;81.23
8140;BME280;4111;50.972;7.072;2023-07-09T01:26:40;101256.72;;;22.66;81.67
8140;BME280;4111;50.972;7.072;2023-07-09T01:29:07;101256.13;;;23.01;81.71
8140;BME280;4111;50.972;7.072;2023-07-09T01:31:33;101253.13;;;23.20;80.60
8140;BME280;4111;50.972;7.072;2023-07-09T01:34:01;101258.72;;;23.37;79.59
8140;BME280;4111;50.972;7.072;2023-07-09T01:36:28;101259.09;;;23.44;79.26
8140;BME280;4111;50.972;7.072;2023-07-09T01:38:55;101255.59;;;23.21;79.17
8140;BME280;4111;50.972;7.072;2023-07-09T01:41:22;101253.13;;;23.20;79.37
8140;BME280;4111;50.972;7.072;2023-07-09T01:43:49;101254.41;;;23.13;79.31
8140;BME280;4111;50.972;7.072;2023-07-09T01:46:16;101254.03;;;23.06;79.45
8140;BME280;4111;50.972;7.072;2023-07-09T01:48:43;101254.44;;;22.91;79.98
8140;BME280;4111;50.972;7.072;2023-07-09T01:51:12;101252.91;;;22.85;80.31
8140;BME280;4111;50.972;7.072;2023-07-09T01:53:40;101254.19;;;22.78;80.75
8140;BME280;4111;50.972;7.072;2023-07-09T01:56:07;101258.75;;;22.52;81.29
8140;BME280;4111;50.972;7.072;2023-07-09T01:58:34;101256.63;;;22.26;82.37
8140;BME280;4111;50.972;7.072;2023-07-09T02:01:00;101252.66;;;22.05;83.61
8140;BME280;4111;50.972;7.072;2023-07-09T02:03:27;101261.28;;;21.89;84.31
8140;BME280;4111;50.972;7.072;2023-07-09T02:05:54;101261.72;;;21.83;84.80
8140;BME280;4111;50.972;7.072;2023-07-09T02:08:20;101266.84;;;21.75;85.40
8140;BME280;4111;50.972;7.072;2023-07-09T02:10:50;101268.44;;;22.04;85.33
8140;BME280;4111;50.972;7.072;2023-07-09T02:13:17;101267.69;;;22.26;84.63
8140;BME280;4111;50.972;7.072;2023-07-09T02:15:44;101265.81;;;22.35;84.19
8140;BME280;4111;50.972;7.072;2023-07-09T02:18:11;101260.50;;;22.25;83.53
8140;BME280;4111;50.972;7.072;2023-07-09T02:20:38;101271.88;;;22.24;83.56
8140;BME280;4111;50.972;7.072;2023-07-09T02:23:06;101270.03;;;22.19;84.04
8140;BME280;4111;50.972;7.072;2023-07-09T02:25:34;101263.47;;;22.15;84.13
8140;BME280;4111;50.972;7.072;2023-07-09T02:28:00;101262.66;;;22.14;84.09
8140;BME280;4111;50.972;7.072;2023-07-09T02:30:27;101265.50;;;22.23;84.12
8140;BME280;4111;50.972;7.072;2023-07-09T02:32:53;101263.97;;;22.17;84.07
8140;BME280;4111;50.972;7.072;2023-07-09T02:35:21;101266.88;;;22.12;84.48
8140;BME280;4111;50.972;7.072;2023-07-09T02:37:47;101275.59;;;22.05;84.67
8140;BME280;4111;50.972;7.072;2023-07-09T02:40:15;101271.97;;;21.82;85.06
8140;BME280;4111;50.972;7.072;2023-07-09T02:42:41;101277.09;;;21.61;86.04
8140;BME280;4111;50.972;7.072;2023-07-09T02:45:08;101273.22;;;21.48;86.50
8140;BME280;4111;50.972;7.072;2023-07-09T02:47:35;101280.06;;;21.37;87.45
8140;BME280;4111;50.972;7.072;2023-07-09T02:50:02;101281.38;;;21.26;88.45
8140;BME280;4111;50.972;7.072;2023-07-09T02:52:29;101279.53;;;21.21;88.80
8140;BME280;4111;50.972;7.072;2023-07-09T02:54:55;101286.47;;;21.18;89.59
8140;BME280;4111;50.972;7.072;2023-07-09T02:57:22;101283.56;;;21.56;89.20
8140;BME280;4111;50.972;7.072;2023-07-09T02:59:48;101273.16;;;21.90;88.16
8140;BME280;4111;50.972;7.072;2023-07-09T03:02:15;101275.00;;;21.94;87.37
8140;BME280;4111;50.972;7.072;2023-07-09T03:04:41;101275.75;;;21.86;87.32
8140;BME280;4111;50.972;7.072;2023-07-09T03:07:08;101281.16;;;21.91;86.97
8140;BME280;4111;50.972;7.072;2023-07-09T03:09:34;101284.03;;;21.86;87.25
8140;BME280;4111;50.972;7.072;2023-07-09T03:12:01;101288.13;;;21.89;86.80
8140;BME280;4111;50.972;7.072;2023-07-09T03:14:27;101284.56;;;21.88;86.95
8140;BME280;4111;50.972;7.072;2023-07-09T03:16:54;101290.41;;;21.59;87.11
8140;BME280;4111;50.972;7.072;2023-07-09T03:19:20;101293.66;;;21.33;88.29
8140;BME280;4111;50.972;7.072;2023-07-09T03:21:48;101296.91;;;21.22;89.13
8140;BME280;4111;50.972;7.072;2023-07-09T03:24:14;101302.00;;;21.14;89.35
8140;BME280;4111;50.972;7.072;2023-07-09T03:26:45;101295.06;;;21.03;90.03
8140;BME280;4111;50.972;7.072;2023-07-09T03:29:12;101305.16;;;20.94;90.67
8140;BME280;4111;50.972;7.072;2023-07-09T03:31:38;101313.59;;;20.84;91.26
8140;BME280;4111;50.972;7.072;2023-07-09T03:34:05;101308.56;;;21.18;91.02
8140;BME280;4111;50.972;7.072;2023-07-09T03:36:31;101312.53;;;21.45;90.08
8140;BME280;4111;50.972;7.072;2023-07-09T03:38:58;101311.81;;;21.53;88.96
8140;BME280;4111;50.972;7.072;2023-07-09T03:41:25;101310.47;;;21.51;88.43
8140;BME280;4111;50.972;7.072;2023-07-09T03:43:51;101305.56;;;21.48;88.65
8140;BME280;4111;50.972;7.072;2023-07-09T03:46:19;101308.69;;;21.41;89.05
8140;BME280;4111;50.972;7.072;2023-07-09T03:48:46;101313.72;;;21.39;88.96
8140;BME280;4111;50.972;7.072;2023-07-09T03:51:13;101313.72;;;21.39;89.23
8140;BME280;4111;50.972;7.072;2023-07-09T03:53:39;101316.72;;;21.56;89.30
8140;BME280;4111;50.972;7.072;2023-07-09T03:56:06;101317.81;;;21.42;89.27
8140;BME280;4111;50.972;7.072;2023-07-09T03:58:33;101324.97;;;21.29;89.53
8140;BME280;4111;50.972;7.072;2023-07-09T04:00:59;101325.13;;;21.18;90.09
8140;BME280;4111;50.972;7.072;2023-07-09T04:03:26;101318.88;;;21.13;90.55
8140;BME280;4111;50.972;7.072;2023-07-09T04:08:18;101329.22;;;21.07;90.54
8140;BME280;4111;50.972;7.072;2023-07-09T04:10:46;101330.44;;;21.01;91.28
8140;BME280;4111;50.972;7.072;2023-07-09T04:13:12;101327.56;;;21.06;91.94
8140;BME280;4111;50.972;7.072;2023-07-09T04:15:39;101332.44;;;21.42;90.85
8140;BME280;4111;50.972;7.072;2023-07-09T04:18:05;101333.09;;;21.67;90.11
8140;BME280;4111;50.972;7.072;2023-07-09T04:20:32;101326.44;;;21.68;89.06
8140;BME280;4111;50.972;7.072;2023-07-09T04:23:01;101325.41;;;21.64;89.01
8140;BME280;4111;50.972;7.072;2023-07-09T04:25:27;101329.69;;;21.70;88.83
8140;BME280;4111;50.972;7.072;2023-07-09T04:27:54;101330.22;;;21.72;88.42
8140;BME280;4111;50.972;7.072;2023-07-09T04:30:21;101336.38;;;21.69;88.61
8140;BME280;4111;50.972;7.072;2023-07-09T04:32:47;101339.75;;;21.66;88.56
8140;BME280;4111;50.972;7.072;2023-07-09T04:35:14;101328.88;;;21.69;88.79
8140;BME280;4111;50.972;7.072;2023-07-09T04:37:41;101338.84;;;21.56;88.89
8140;BME280;4111;50.972;7.072;2023-07-09T04:40:08;101334.63;;;21.45;89.10
8140;BME280;4111;50.972;7.072;2023-07-09T04:42:37;101328.63;;;21.38;89.17
8140;BME280;4111;50.972;7.072;2023-07-09T04:45:06;101330.88;;;21.36;89.39
8140;BME280;4111;50.972;7.072;2023-07-09T04:47:32;101328.13;;;21.36;89.90
8140;BME280;4111;50.972;7.072;2023-07-09T04:49:59;101321.72;;;21.41;90.30
8140;BME280;4111;50.972;7.072;2023-07-09T04:52:25;101329.50;;;21.52;91.01
8140;BME280;4111;50.972;7.072;2023-07-09T04:54:52;101329.91;;;21.87;90.45
8140;BME280;4111;50.972;7.072;2023-07-09T04:57:19;101330.06;;;22.18;89.02
8140;BME280;4111;50.972;7.072;2023-07-09T04:59:45;101328.03;;;22.24;87.79
8140;BME280;4111;50.972;7.072;2023-07-09T05:02:11;101327.38;;;22.27;87.02
8140;BME280;4111;50.972;7.072;2023-07-09T05:04:38;101330.06;;;22.32;86.70
8140;BME280;4111;50.972;7.072;2023-07-09T05:07:04;101321.66;;;22.37;86.35
8140;BME280;4111;50.972;7.072;2023-07-09T05:09:31;101317.81;;;22.47;86.15
8140;BME280;4111;50.972;7.072;2023-07-09T05:11:59;101323.31;;;22.61;85.90
8140;BME280;4111;50.972;7.072;2023-07-09T05:14:27;101321.03;;;22.63;84.79
8140;BME280;4111;50.972;7.072;2023-07-09T05:16:54;101318.38;;;22.58;84.63
8140;BME280;4111;50.972;7.072;2023-07-09T05:19:20;101319.84;;;22.55;84.14
8140;BME280;4111;50.972;7.072;2023-07-09T05:21:46;101321.25;;;22.53;83.83
8140;BME280;4111;50.972;7.072;2023-07-09T05:24:13;101308.06;;;22.50;83.95
8140;BME280;4111;50.972;7.072;2023-07-09T05:26:39;101316.88;;;22.52;83.69
8140;BME280;4111;50.972;7.072;2023-07-09T05:29:06;101322.47;;;22.61;83.87
8140;BME280;4111;50.972;7.072;2023-07-09T05:31:33;101314.09;;;22.74;83.96
8140;BME280;4111;50.972;7.072;2023-07-09T05:34:00;101318.34;;;23.26;83.39
8140;BME280;4111;50.972;7.072;2023-07-09T05:36:27;101325.50;;;23.67;81.50
8140;BME280;4111;50.972;7.072;2023-07-09T05:38:55;101320.53;;;23.86;80.50
8140;BME280;4111;50.972;7.072;2023-07-09T05:41:22;101325.44;;;23.89;79.81
8140;BME280;4111;50.972;7.072;2023-07-09T05:43:51;101323.69;;;24.02;79.44
8140;BME280;4111;50.972;7.072;2023-07-09T05:46:19;101323.38;;;24.39;78.88
8140;BME280;4111;50.972;7.072;2023-07-09T05:48:46;101320.59;;;24.39;77.98
8140;BME280;4111;50.972;7.072;2023-07-09T05:51:12;101313.75;;;24.27;77.29
8140;BME280;4111;50.972;7.072;2023-07-09T05:53:38;101325.81;;;24.14;77.26
8140;BME280;4111;50.972;7.072;2023-07-09T05:56:05;101315.03;;;24.04;77.68
8140;BME280;4111;50.972;7.072;2023-07-09T05:58:32;101323.50;;;23.99;77.58
8140;BME280;4111;50.972;7.072;2023-07-09T06:00:58;101322.34;;;23.91;77.60
8140;BME280;4111;50.972;7.072;2023-07-09T06:03:26;101321.53;;;23.90;77.57
8140;BME280;4111;50.972;7.072;2023-07-09T06:05:53;101327.13;;;24.08;77.60
8140;BME280;4111;50.972;7.072;2023-07-09T06:08:20;101322.44;;;24.61;76.57
8140;BME280;4111;50.972;7.072;2023-07-09T06:10:53;101323.53;;;24.86;75.52
8140;BME280;4111;50.972;7.072;2023-07-09T06:13:20;101322.97;;;25.19;74.65
8140;BME280;4111;50.972;7.072;2023-07-09T06:15:48;101315.94;;;25.30;74.32
8140;BME280;4111;50.972;7.072;2023-07-09T06:18:15;101313.63;;;25.32;73.89
8140;BME280;4111;50.972;7.072;2023-07-09T06:20:46;101314.75;;;25.40;74.16
8140;BME280;4111;50.972;7.072;2023-07-09T06:23:13;101315.34;;;25.54;73.70
8140;BME280;4111;50.972;7.072;2023-07-09T06:25:40;101314.41;;;25.71;73.56
8140;BME280;4111;50.972;7.072;2023-07-09T06:28:06;101324.00;;;25.91;72.69
8140;BME280;4111;50.972;7.072;2023-07-09T06:30:33;101315.72;;;26.24;72.03
8140;BME280;4111;50.972;7.072;2023-07-09T06:32:59;101319.41;;;26.16;71.05
8140;BME280;4111;50.972;7.072;2023-07-09T06:35:26;101310.97;;;26.04;70.85
8140;BME280;4111;50.972;7.072;2023-07-09T06:37:52;101320.88;;;25.92;70.84
8140;BME280;4111;50.972;7.072;2023-07-09T06:40:18;101318.94;;;25.84;70.88
8140;BME280;4111;50.972;7.072;2023-07-09T06:42:45;101320.28;;;25.78;71.76
8140;BME280;4111;50.972;7.072;2023-07-09T06:45:11;101314.72;;;25.78;71.94
8140;BME280;4111;50.972;7.072;2023-07-09T06:47:37;101318.66;;;25.77;71.88
8140;BME280;4111;50.972;7.072;2023-07-09T06:50:05;101318.66;;;25.77;71.34
8140;BME280;4111;50.972;7.072;2023-07-09T06:52:32;101320.28;;;25.78;70.25
8140;BME280;4111;50.972;7.072;2023-07-09T06:54:58;101324.00;;;25.82;70.06
8140;BME280;4111;50.972;7.072;2023-07-09T06:57:24;101321.38;;;25.86;68.86
8140;BME280;4111;50.972;7.072;2023-07-09T06:59:51;101325.44;;;25.88;68.60
8140;BME280;4111;50.972;7.072;2023-07-09T07:02:18;101313.69;;;25.91;67.78
8140;BME280;4111;50.972;7.072;2023-07-09T07:04:44;101313.84;;;25.95;67.44
8140;BME280;4111;50.972;7.072;2023-07-09T07:07:11;101313.44;;;26.05;67.48
8140;BME280;4111;50.972;7.072;2023-07-09T07:09:37;101317.78;;;26.15;67.50
8140;BME280;4111;50.972;7.072;2023-07-09T07:12:04;101318.03;;;26.22;67.77
8140;BME280;4111;50.972;7.072;2023-07-09T07:14:31;101322.75;;;26.30;67.43
8140;BME280;4111;50.972;7.072;2023-07-09T07:16:57;101321.84;;;26.39;67.51
8140;BME280;4111;50.972;7.072;2023-07-09T07:19:24;101310.84;;;26.42;66.34
8140;BME280;4111;50.972;7.072;2023-07-09T07:21:50;101308.78;;;26.51;66.65
8140;BME280;4111;50.972;7.072;2023-07-09T07:24:17;101312.03;;;26.54;66.38
8140;BME280;4111;50.972;7.072;2023-07-09T07:26:43;101302.00;;;26.61;65.68
8140;BME280;4111;50.972;7.072;2023-07-09T07:29:09;101291.28;;;26.72;65.60
8140;BME280;4111;50.972;7.072;2023-07-09T07:31:36;101296.53;;;26.86;65.84
8140;BME280;4111;50.972;7.072;2023-07-09T07:34:02;101293.66;;;26.95;65.69
8140;BME280;4111;50.972;7.072;2023-07-09T07:36:29;101297.97;;;27.04;65.67
8140;BME280;4111;50.972;7.072;2023-07-09T07:38:58;101294.25;;;27.13;65.52
8140;BME280;4111;50.972;7.072;2023-07-09T07:41:25;101303.34;;;27.22;65.38
8140;BME280;4111;50.972;7.072;2023-07-09T07:43:51;101310.34;;;27.28;65.50
8140;BME280;4111;50.972;7.072;2023-07-09T07:46:18;101293.88;;;27.35;65.41
8140;BME280;4111;50.972;7.072;2023-07-09T07:48:44;101306.88;;;27.43;64.93
8140;BME280;4111;50.972;7.072;2023-07-09T07:51:11;101305.22;;;27.55;64.56
8140;BME280;4111;50.972;7.072;2023-07-09T07:53:37;101299.53;;;27.63;64.22
8140;BME280;4111;50.972;7.072;2023-07-09T07:56:04;101299.41;;;27.72;64.13
8140;BME280;4111;50.972;7.072;2023-07-09T07:58:31;101299.31;;;27.81;63.72
8140;BME280;4111;50.972;7.072;2023-07-09T08:00:58;101301.84;;;27.86;64.13
8140;BME280;4111;50.972;7.072;2023-07-09T08:03:26;101299.78;;;27.95;63.08
8140;BME280;4111;50.972;7.072;2023-07-09T08:05:53;101300.53;;;28.08;62.83
8140;BME280;4111;50.972;7.072;2023-07-09T08:08:19;101302.41;;;28.16;62.42
8140;BME280;4111;50.972;7.072;2023-07-09T08:10:48;101306.31;;;28.27;61.99
8140;BME280;4111;50.972;7.072;2023-07-09T08:13:15;101297.06;;;28.39;61.37
8140;BME280;4111;50.972;7.072;2023-07-09T08:15:41;101293.16;;;28.84;61.65
8140;BME280;4111;50.972;7.072;2023-07-09T08:18:08;101294.38;;;29.63;59.83
8140;BME280;4111;50.972;7.072;2023-07-09T08:20:35;101291.72;;;30.41;56.86
8140;BME280;4111;50.972;7.072;2023-07-09T08:23:01;101287.34;;;31.06;55.38
8140;BME280;4111;50.972;7.072;2023-07-09T08:25:28;101288.47;;;31.74;54.35
8140;BME280;4111;50.972;7.072;2023-07-09T08:27:54;101280.56;;;32.10;52.75
8140;BME280;4111;50.972;7.072;2023-07-09T08:30:20;101281.75;;;32.39;51.74
8140;BME280;4111;50.972;7.072;2023-07-09T08:32:47;101275.50;;;32.56;50.96
8140;BME280;4111;50.972;7.072;2023-07-09T08:35:14;101276.75;;;32.59;50.07
8140;BME280;4111;50.972;7.072;2023-07-09T08:38:01;101274.75;;;32.59;49.40
8140;BME280;4111;50.972;7.072;2023-07-09T08:40:28;101271.28;;;32.73;49.21
8140;BME280;4111;50.972;7.072;2023-07-09T08:43:02;101272.53;;;32.79;48.40
8140;BME280;4111;50.972;7.072;2023-07-09T08:46:37;101267.88;;;32.94;47.55
8140;BME280;4111;50.972;7.072;2023-07-09T08:48:38;101267.09;;;32.97;47.88
8140;BME280;4111;50.972;7.072;2023-07-09T08:51:13;101268.09;;;33.19;47.98
8140;BME280;4111;50.972;7.072;2023-07-09T08:53:48;101267.41;;;33.33;47.10
8140;BME280;4111;50.972;7.072;2023-07-09T08:56:15;101254.59;;;33.39;47.31
8140;BME280;4111;50.972;7.072;2023-07-09T08:58:43;101257.00;;;33.41;46.54
8140;BME280;4111;50.972;7.072;2023-07-09T09:01:22;101271.13;;;33.48;45.68
8140;BME280;4111;50.972;7.072;2023-07-09T09:03:52;101263.09;;;33.47;45.20
8140;BME280;4111;50.972;7.072;2023-07-09T09:06:26;101272.41;;;33.58;45.38
8140;BME280;4111;50.972;7.072;2023-07-09T09:11:33;101261.28;;;33.76;44.44
8140;BME280;4111;50.972;7.072;2023-07-09T09:14:18;101258.56;;;33.94;43.95
8140;BME280;4111;50.972;7.072;2023-07-09T09:16:46;101255.75;;;33.94;43.19
8140;BME280;4111;50.972;7.072;2023-07-09T09:19:37;101250.56;;;34.03;43.36
8140;BME280;4111;50.972;7.072;2023-07-09T09:22:10;101247.03;;;34.28;43.23
8140;BME280;4111;50.972;7.072;2023-07-09T09:24:55;101243.03;;;34.32;42.49
8140;BME280;4111;50.972;7.072;2023-07-09T09:27:23;101247.13;;;34.56;42.75
8140;BME280;4111;50.972;7.072;2023-07-09T09:29:49;101244.78;;;34.84;42.29
8140;BME280;4111;50.972;7.072;2023-07-09T09:32:26;101239.91;;;34.91;41.62
8140;BME280;4111;50.972;7.072;2023-07-09T09:34:53;101244.38;;;34.96;41.80
8140;BME280;4111;50.972;7.072;2023-07-09T09:37:31;101243.16;;;35.01;40.95
8140;BME280;4111;50.972;7.072;2023-07-09T09:39:59;101244.75;;;35.05;40.52
8140;BME280;4111;50.972;7.072;2023-07-09T09:42:40;101250.41;;;35.09;40.06
8140;BME280;4111;50.972;7.072;2023-07-09T09:45:13;101251.63;;;35.19;39.96
8140;BME280;4111;50.972;7.072;2023-07-09T09:47:43;101245.59;;;35.20;39.30
8140;BME280;4111;50.972;7.072;2023-07-09T09:50:21;101246.41;;;35.31;40.32
8140;BME280;4111;50.972;7.072;2023-07-09T09:52:49;101248.41;;;35.31;40.06
8140;BME280;4111;50.972;7.072;2023-07-09T09:55:18;101248.41;;;35.42;39.90
8140;BME280;4111;50.972;7.072;2023-07-09T09:57:50;101243.94;;;35.51;39.64
8140;BME280;4111;50.972;7.072;2023-07-09T10:00:20;101237.47;;;35.54;39.25
8140;BME280;4111;50.972;7.072;2023-07-09T10:02:48;101243.13;;;35.72;39.67
8140;BME280;4111;50.972;7.072;2023-07-09T10:05:15;101232.16;;;35.89;39.14
8140;BME280;4111;50.972;7.072;2023-07-09T10:10:34;101226.91;;;35.84;39.13
8140;BME280;4111;50.972;7.072;2023-07-09T10:16:38;101213.91;;;36.04;38.45
8140;BME280;4111;50.972;7.072;2023-07-09T10:19:23;101217.06;;;36.13;38.47
8140;BME280;4111;50.972;7.072;2023-07-09T10:21:57;101207.41;;;36.07;38.21
8140;BME280;4111;50.972;7.072;2023-07-09T10:27:12;101202.47;;;36.29;37.22
8140;BME280;4111;50.972;7.072;2023-07-09T10:38:17;101209.78;;;36.83;37.08
8140;BME280;4111;50.972;7.072;2023-07-09T10:40:46;101207.34;;;36.85;37.36
8140;BME280;4111;50.972;7.072;2023-07-09T10:43:20;101202.53;;;36.85;36.89
8140;BME280;4111;50.972;7.072;2023-07-09T10:45:56;101211.38;;;36.91;37.13
8140;BME280;4111;50.972;7.072;2023-07-09T10:48:34;101195.53;;;36.97;36.70
8140;BME280;4111;50.972;7.072;2023-07-09T10:51:02;101204.22;;;36.76;36.15
8140;BME280;4111;50.972;7.072;2023-07-09T10:53:36;101207.94;;;36.62;37.09
8140;BME280;4111;50.972;7.072;2023-07-09T10:56:16;101196.22;;;37.12;36.49
8140;BME280;4111;50.972;7.072;2023-07-09T10:58:49;101189.13;;;37.73;36.03
8140;BME280;4111;50.972;7.072;2023-07-09T11:01:19;101187.88;;;37.74;35.21
8140;BME280;4111;50.972;7.072;2023-07-09T11:03:51;101190.66;;;37.01;35.27
8140;BME280;4111;50.972;7.072;2023-07-09T11:06:45;101192.28;;;36.99;35.95
8140;BME280;4111;50.972;7.072;2023-07-09T11:11:54;101187.47;;;36.96;35.30
8140;BME280;4111;50.972;7.072;2023-07-09T11:14:23;101176.06;;;37.03;35.40
8140;BME280;4111;50.972;7.072;2023-07-09T11:16:55;101172.75;;;37.15;35.43
8140;BME280;4111;50.972;7.072;2023-07-09T11:19:23;101177.63;;;37.11;34.70
8140;BME280;4111;50.972;7.072;2023-07-09T11:24:45;101147.53;;;37.24;34.97
8140;BME280;4111;50.972;7.072;2023-07-09T11:27:23;101155.75;;;37.15;33.63
8140;BME280;4111;50.972;7.072;2023-07-09T11:30:26;101135.53;;;37.17;32.80
8140;BME280;4111;50.972;7.072;2023-07-09T11:33:04;101136.06;;;37.39;33.18
8140;BME280;4111;50.972;7.072;2023-07-09T11:35:50;101136.50;;;37.37;32.75
8140;BME280;4111;50.972;7.072;2023-07-09T11:38:20;101123.66;;;36.87;33.50
8140;BME280;4111;50.972;7.072;2023-07-09T11:40:51;101133.69;;;36.47;34.64
8140;BME280;4111;50.972;7.072;2023-07-09T11:43:35;101139.56;;;36.14;35.11
8140;BME280;4111;50.972;7.072;2023-07-09T11:46:21;101135.72;;;35.80;35.60
8140;BME280;4111;50.972;7.072;2023-07-09T11:48:50;101141.03;;;35.56;34.85
8140;BME280;4111;50.972;7.072;2023-07-09T11:51:34;101137.41;;;35.55;35.84
8140;BME280;4111;50.972;7.072;2023-07-09T11:54:03;101140.25;;;35.52;36.19
8140;BME280;4111;50.972;7.072;2023-07-09T11:56:30;101139.47;;;35.41;36.14
8140;BME280;4111;50.972;7.072;2023-07-09T11:58:58;101139.13;;;35.31;36.00
8140;BME280;4111;50.972;7.072;2023-07-09T12:01:42;101138.28;;;35.34;37.17
8140;BME280;4111;50.972;7.072;2023-07-09T12:04:12;101130.22;;;35.37;36.93
8140;BME280;4111;50.972;7.072;2023-07-09T12:06:40;101132.63;;;35.34;36.88
8140;BME280;4111;50.972;7.072;2023-07-09T12:09:12;101140.72;;;35.32;36.73
8140;BME280;4111;50.972;7.072;2023-07-09T12:11:44;101137.09;;;35.35;36.55
8140;BME280;4111;50.972;7.072;2023-07-09T12:14:14;101139.91;;;35.32;36.53
8140;BME280;4111;50.972;7.072;2023-07-09T12:16:44;101138.69;;;35.15;36.67
8140;BME280;4111;50.972;7.072;2023-07-09T12:19:13;101135.13;;;35.00;36.78
8140;BME280;4111;50.972;7.072;2023-07-09T12:21:43;101137.16;;;35.00;37.33
8140;BME280;4111;50.972;7.072;2023-07-09T12:24:21;101131.38;;;35.50;38.16
8140;BME280;4111;50.972;7.072;2023-07-09T12:26:56;101118.03;;;35.61;37.06
8140;BME280;4111;50.972;7.072;2023-07-09T12:29:26;101119.63;;;35.62;36.72
8140;BME280;4111;50.972;7.072;2023-07-09T12:31:56;101105.09;;;35.74;36.76
8140;BME280;4111;50.972;7.072;2023-07-09T12:34:24;101099.38;;;35.82;35.65
8140;BME280;4111;50.972;7.072;2023-07-09T12:36:52;101093.22;;;35.94;36.53
8140;BME280;4111;50.972;7.072;2023-07-09T12:39:24;101088.78;;;36.00;35.83
8140;BME280;4111;50.972;7.072;2023-07-09T12:41:54;101087.94;;;36.03;35.41
8140;BME280;4111;50.972;7.072;2023-07-09T12:44:23;101077.03;;;36.02;35.26
8140;BME280;4111;50.972;7.072;2023-07-09T12:46:52;101083.94;;;36.01;37.04
8140;BME280;4111;50.972;7.072;2023-07-09T12:49:30;101085.53;;;35.98;35.53
8140;BME280;4111;50.972;7.072;2023-07-09T12:52:00;101085.53;;;35.98;35.43
8140;BME280;4111;50.972;7.072;2023-07-09T12:54:29;101090.41;;;35.94;34.47
8140;BME280;4111;50.972;7.072;2023-07-09T12:56:58;101083.94;;;35.97;34.72
8140;BME280;4111;50.972;7.072;2023-07-09T12:59:28;101087.97;;;35.96;34.62
8140;BME280;4111;50.972;7.072;2023-07-09T13:04:31;101080.31;;;36.00;34.77
8140;BME280;4111;50.972;7.072;2023-07-09T13:06:58;101072.63;;;35.97;34.94
8140;BME280;4111;50.972;7.072;2023-07-09T13:09:26;101076.66;;;35.96;34.49
8140;BME280;4111;50.972;7.072;2023-07-09T13:11:54;101075.88;;;35.96;34.34
8140;BME280;4111;50.972;7.072;2023-07-09T13:14:26;101071.81;;;36.00;34.18
8140;BME280;4111;50.972;7.072;2023-07-09T13:17:02;101065.41;;;35.92;33.07
8140;BME280;4111;50.972;7.072;2023-07-09T13:19:29;101057.28;;;35.98;33.49
8140;BME280;4111;50.972;7.072;2023-07-09T13:21:56;101058.06;;;36.02;33.64
8140;BME280;4111;50.972;7.072;2023-07-09T13:24:24;101054.41;;;36.05;33.67
8140;BME280;4111;50.972;7.072;2023-07-09T13:26:50;101048.38;;;36.03;33.70
8140;BME280;4111;50.972;7.072;2023-07-09T13:29:19;101048.47;;;35.92;33.94
8140;BME280;4111;50.972;7.072;2023-07-09T13:31:46;101046.03;;;35.91;33.34
8140;BME280;4111;50.972;7.072;2023-07-09T13:34:23;101045.94;;;36.05;33.40
8140;BME280;4111;50.972;7.072;2023-07-09T13:36:51;101044.25;;;36.11;33.66
8140;BME280;4111;50.972;7.072;2023-07-09T13:39:20;101040.19;;;36.20;34.11
8140;BME280;4111;50.972;7.072;2023-07-09T13:41:49;101045.88;;;36.12;35.95
8140;BME280;4111;50.972;7.072;2023-07-09T13:44:20;101032.94;;;36.15;35.03
8140;BME280;4111;50.972;7.072;2023-07-09T13:46:47;101024.44;;;36.15;35.85
8140;BME280;4111;50.972;7.072;2023-07-09T13:49:18;101020.00;;;36.18;35.33
8140;BME280;4111;50.972;7.072;2023-07-09T13:51:47;101009.81;;;36.27;35.61
8140;BME280;4111;50.972;7.072;2023-07-09T13:54:23;101007.91;;;36.13;35.42